sensor_id;sensor_type;location;lat;lon;timestamp;P1;durP1;ratioP1;P2;durP2;ratioP2
19951;SDS011;10137;49.406;19.484;2022-08-19T00:01:23;18.13;;;12.88;;
19951;SDS011;10137;49.406;19.484;2022-08-19T00:03:53;18.52;;;13.32;;
19951;SDS011;10137;49.406;19.484;2022-08-19T00:06:22;16.10;;;12.02;;
19951;SDS011;10137;49.406;19.484;2022-08-19T00:08:50;22.67;;;13.35;;
19951;SDS011;10137;49.406;19.484;2022-08-19T00:11:20;17.05;;;13.15;;
19951;SDS011;10137;49.406;19.484;2022-08-19T00:13:49;18.92;;;12.45;;
19951;SDS011;10137;49.406;19.484;2022-08-19T00:16:17;16.25;;;12.60;;
19951;SDS011;10137;49.406;19.484;2022-08-19T00:18:47;19.10;;;11.98;;
19951;SDS011;10137;49.406;19.484;2022-08-19T00:21:16;15.30;;;12.27;;
19951;SDS011;10137;49.406;19.484;2022-08-19T00:23:45;17.35;;;12.95;;
19951;SDS011;10137;49.406;19.484;2022-08-19T00:26:13;14.55;;;11.95;;
19951;SDS011;10137;49.406;19.484;2022-08-19T00:28:41;14.35;;;12.20;;
19951;SDS011;10137;49.406;19.484;2022-08-19T00:31:10;17.05;;;12.00;;
19951;SDS011;10137;49.406;19.484;2022-08-19T00:33:38;20.50;;;11.70;;
19951;SDS011;10137;49.406;19.484;2022-08-19T00:36:07;16.02;;;12.00;;
19951;SDS011;10137;49.406;19.484;2022-08-19T00:38:38;16.40;;;12.40;;
19951;SDS011;10137;49.406;19.484;2022-08-19T00:41:09;17.75;;;13.38;;
19951;SDS011;10137;49.406;19.484;2022-08-19T00:43:40;16.75;;;12.35;;
19951;SDS011;10137;49.406;19.484;2022-08-19T00:46:08;15.95;;;12.10;;
19951;SDS011;10137;49.406;19.484;2022-08-19T00:48:36;24.00;;;12.63;;
19951;SDS011;10137;49.406;19.484;2022-08-19T00:51:05;19.35;;;13.02;;
19951;SDS011;10137;49.406;19.484;2022-08-19T00:53:33;20.83;;;12.50;;
19951;SDS011;10137;49.406;19.484;2022-08-19T00:56:03;16.73;;;12.00;;
19951;SDS011;10137;49.406;19.484;2022-08-19T00:58:33;18.98;;;11.90;;
19951;SDS011;10137;49.406;19.484;2022-08-19T01:01:01;16.63;;;11.90;;
19951;SDS011;10137;49.406;19.484;2022-08-19T01:03:31;16.42;;;12.90;;
19951;SDS011;10137;49.406;19.484;2022-08-19T01:05:59;14.48;;;11.82;;
19951;SDS011;10137;49.406;19.484;2022-08-19T01:08:28;16.42;;;11.73;;
19951;SDS011;10137;49.406;19.484;2022-08-19T01:10:58;15.57;;;11.98;;
19951;SDS011;10137;49.406;19.484;2022-08-19T01:13:30;17.02;;;12.35;;
19951;SDS011;10137;49.406;19.484;2022-08-19T01:16:02;17.77;;;12.32;;
19951;SDS011;10137;49.406;19.484;2022-08-19T01:18:32;16.20;;;12.63;;
19951;SDS011;10137;49.406;19.484;2022-08-19T01:21:08;16.58;;;12.05;;
19951;SDS011;10137;49.406;19.484;2022-08-19T01:23:43;18.05;;;13.45;;
19951;SDS011;10137;49.406;19.484;2022-08-19T01:26:14;17.02;;;12.88;;
19951;SDS011;10137;49.406;19.484;2022-08-19T01:28:46;16.23;;;12.30;;
19951;SDS011;10137;49.406;19.484;2022-08-19T01:31:18;18.88;;;12.20;;
19951;SDS011;10137;49.406;19.484;2022-08-19T01:33:49;17.70;;;12.70;;
19951;SDS011;10137;49.406;19.484;2022-08-19T01:36:21;15.02;;;12.35;;
19951;SDS011;10137;49.406;19.484;2022-08-19T01:38:57;15.57;;;12.05;;
19951;SDS011;10137;49.406;19.484;2022-08-19T01:41:26;16.10;;;11.75;;
19951;SDS011;10137;49.406;19.484;2022-08-19T01:43:54;13.82;;;11.90;;
19951;SDS011;10137;49.406;19.484;2022-08-19T01:46:23;13.57;;;11.98;;
19951;SDS011;10137;49.406;19.484;2022-08-19T01:48:50;19.95;;;12.98;;
19951;SDS011;10137;49.406;19.484;2022-08-19T01:51:17;15.05;;;11.85;;
19951;SDS011;10137;49.406;19.484;2022-08-19T01:53:47;18.95;;;12.93;;
19951;SDS011;10137;49.406;19.484;2022-08-19T01:56:17;16.15;;;13.23;;
19951;SDS011;10137;49.406;19.484;2022-08-19T01:58:47;16.75;;;12.85;;
19951;SDS011;10137;49.406;19.484;2022-08-19T02:01:20;16.92;;;13.02;;
19951;SDS011;10137;49.406;19.484;2022-08-19T02:03:48;19.42;;;13.32;;
19951;SDS011;10137;49.406;19.484;2022-08-19T02:06:16;15.98;;;12.38;;
19951;SDS011;10137;49.406;19.484;2022-08-19T02:08:43;16.90;;;13.15;;
19951;SDS011;10137;49.406;19.484;2022-08-19T02:11:19;21.85;;;12.38;;
19951;SDS011;10137;49.406;19.484;2022-08-19T02:13:49;19.15;;;12.50;;
19951;SDS011;10137;49.406;19.484;2022-08-19T02:16:17;16.50;;;12.02;;
19951;SDS011;10137;49.406;19.484;2022-08-19T02:18:47;15.70;;;12.07;;
19951;SDS011;10137;49.406;19.484;2022-08-19T02:21:17;17.77;;;11.52;;
19951;SDS011;10137;49.406;19.484;2022-08-19T02:23:46;17.73;;;12.65;;
19951;SDS011;10137;49.406;19.484;2022-08-19T02:26:15;16.25;;;11.75;;
19951;SDS011;10137;49.406;19.484;2022-08-19T02:28:45;14.48;;;11.27;;
19951;SDS011;10137;49.406;19.484;2022-08-19T02:31:14;15.82;;;11.45;;
19951;SDS011;10137;49.406;19.484;2022-08-19T02:33:45;14.95;;;11.20;;
19951;SDS011;10137;49.406;19.484;2022-08-19T02:36:15;15.45;;;11.18;;
19951;SDS011;10137;49.406;19.484;2022-08-19T02:38:44;17.15;;;12.50;;
19951;SDS011;10137;49.406;19.484;2022-08-19T02:41:12;14.90;;;12.18;;
19951;SDS011;10137;49.406;19.484;2022-08-19T02:43:41;17.80;;;12.43;;
19951;SDS011;10137;49.406;19.484;2022-08-19T02:46:16;19.30;;;12.82;;
19951;SDS011;10137;49.406;19.484;2022-08-19T02:48:46;17.25;;;12.30;;
19951;SDS011;10137;49.406;19.484;2022-08-19T02:51:18;15.02;;;11.98;;
19951;SDS011;10137;49.406;19.484;2022-08-19T02:53:52;15.57;;;12.55;;
19951;SDS011;10137;49.406;19.484;2022-08-19T02:56:21;16.80;;;11.88;;
19951;SDS011;10137;49.406;19.484;2022-08-19T02:58:50;15.77;;;12.07;;
19951;SDS011;10137;49.406;19.484;2022-08-19T03:01:27;16.23;;;13.00;;
19951;SDS011;10137;49.406;19.484;2022-08-19T03:03:56;19.85;;;12.57;;
19951;SDS011;10137;49.406;19.484;2022-08-19T03:06:29;18.63;;;12.00;;
19951;SDS011;10137;49.406;19.484;2022-08-19T03:08:57;18.85;;;11.90;;
19951;SDS011;10137;49.406;19.484;2022-08-19T03:11:26;17.25;;;11.40;;
19951;SDS011;10137;49.406;19.484;2022-08-19T03:13:56;17.90;;;11.60;;
19951;SDS011;10137;49.406;19.484;2022-08-19T03:16:27;19.00;;;11.70;;
19951;SDS011;10137;49.406;19.484;2022-08-19T03:18:57;20.20;;;11.90;;
19951;SDS011;10137;49.406;19.484;2022-08-19T03:21:27;19.38;;;12.00;;
19951;SDS011;10137;49.406;19.484;2022-08-19T03:23:57;15.80;;;11.32;;
19951;SDS011;10137;49.406;19.484;2022-08-19T03:26:27;13.60;;;11.55;;
19951;SDS011;10137;49.406;19.484;2022-08-19T03:28:56;18.20;;;11.75;;
19951;SDS011;10137;49.406;19.484;2022-08-19T03:31:27;14.98;;;11.20;;
19951;SDS011;10137;49.406;19.484;2022-08-19T03:33:55;17.98;;;12.95;;
19951;SDS011;10137;49.406;19.484;2022-08-19T03:36:25;16.13;;;12.23;;
19951;SDS011;10137;49.406;19.484;2022-08-19T03:38:55;23.38;;;12.95;;
19951;SDS011;10137;49.406;19.484;2022-08-19T03:41:26;16.20;;;12.18;;
19951;SDS011;10137;49.406;19.484;2022-08-19T03:43:57;18.77;;;12.57;;
19951;SDS011;10137;49.406;19.484;2022-08-19T03:46:28;20.13;;;13.32;;
19951;SDS011;10137;49.406;19.484;2022-08-19T03:48:58;24.90;;;13.50;;
19951;SDS011;10137;49.406;19.484;2022-08-19T03:51:29;19.52;;;12.95;;
19951;SDS011;10137;49.406;19.484;2022-08-19T03:54:01;20.33;;;13.05;;
19951;SDS011;10137;49.406;19.484;2022-08-19T03:56:30;25.30;;;14.38;;
19951;SDS011;10137;49.406;19.484;2022-08-19T03:59:00;22.33;;;13.10;;
19951;SDS011;10137;49.406;19.484;2022-08-19T04:01:29;26.60;;;13.45;;
19951;SDS011;10137;49.406;19.484;2022-08-19T04:03:59;21.38;;;13.25;;
19951;SDS011;10137;49.406;19.484;2022-08-19T04:06:27;20.77;;;12.13;;
19951;SDS011;10137;49.406;19.484;2022-08-19T04:08:58;18.88;;;12.32;;
19951;SDS011;10137;49.406;19.484;2022-08-19T04:11:29;19.20;;;12.48;;
19951;SDS011;10137;49.406;19.484;2022-08-19T04:13:59;20.83;;;12.25;;
19951;SDS011;10137;49.406;19.484;2022-08-19T04:16:27;16.75;;;11.75;;
19951;SDS011;10137;49.406;19.484;2022-08-19T04:18:59;28.17;;;13.52;;
19951;SDS011;10137;49.406;19.484;2022-08-19T04:21:29;20.55;;;13.13;;
19951;SDS011;10137;49.406;19.484;2022-08-19T04:23:57;18.25;;;12.85;;
19951;SDS011;10137;49.406;19.484;2022-08-19T04:26:26;18.40;;;13.65;;
19951;SDS011;10137;49.406;19.484;2022-08-19T04:28:58;27.83;;;13.23;;
19951;SDS011;10137;49.406;19.484;2022-08-19T04:31:27;18.67;;;12.25;;
19951;SDS011;10137;49.406;19.484;2022-08-19T04:33:59;20.92;;;12.27;;
19951;SDS011;10137;49.406;19.484;2022-08-19T04:36:29;18.50;;;12.05;;
19951;SDS011;10137;49.406;19.484;2022-08-19T04:39:00;18.33;;;12.63;;
19951;SDS011;10137;49.406;19.484;2022-08-19T04:41:31;19.47;;;12.30;;
19951;SDS011;10137;49.406;19.484;2022-08-19T04:44:16;17.47;;;12.20;;
19951;SDS011;10137;49.406;19.484;2022-08-19T04:46:46;22.25;;;12.70;;
19951;SDS011;10137;49.406;19.484;2022-08-19T04:49:15;24.55;;;13.52;;
19951;SDS011;10137;49.406;19.484;2022-08-19T04:51:44;20.17;;;13.37;;
19951;SDS011;10137;49.406;19.484;2022-08-19T04:54:14;18.80;;;13.10;;
19951;SDS011;10137;49.406;19.484;2022-08-19T04:56:44;18.90;;;13.50;;
19951;SDS011;10137;49.406;19.484;2022-08-19T04:59:12;23.10;;;14.70;;
19951;SDS011;10137;49.406;19.484;2022-08-19T05:01:42;17.65;;;12.88;;
19951;SDS011;10137;49.406;19.484;2022-08-19T05:04:18;19.73;;;13.48;;
19951;SDS011;10137;49.406;19.484;2022-08-19T05:06:47;19.23;;;13.25;;
19951;SDS011;10137;49.406;19.484;2022-08-19T05:09:16;24.13;;;12.32;;
19951;SDS011;10137;49.406;19.484;2022-08-19T05:11:45;20.92;;;12.55;;
19951;SDS011;10137;49.406;19.484;2022-08-19T05:14:15;20.35;;;13.07;;
19951;SDS011;10137;49.406;19.484;2022-08-19T05:16:44;19.40;;;12.68;;
19951;SDS011;10137;49.406;19.484;2022-08-19T05:19:12;21.35;;;13.30;;
19951;SDS011;10137;49.406;19.484;2022-08-19T05:22:00;18.55;;;12.65;;
19951;SDS011;10137;49.406;19.484;2022-08-19T05:24:46;21.92;;;12.45;;
19951;SDS011;10137;49.406;19.484;2022-08-19T05:27:15;17.75;;;14.00;;
19951;SDS011;10137;49.406;19.484;2022-08-19T05:29:44;19.52;;;12.93;;
19951;SDS011;10137;49.406;19.484;2022-08-19T05:32:11;20.45;;;13.18;;
19951;SDS011;10137;49.406;19.484;2022-08-19T05:34:38;17.58;;;13.10;;
19951;SDS011;10137;49.406;19.484;2022-08-19T05:37:07;17.17;;;13.40;;
19951;SDS011;10137;49.406;19.484;2022-08-19T05:39:35;19.48;;;12.80;;
19951;SDS011;10137;49.406;19.484;2022-08-19T05:42:05;21.42;;;13.32;;
19951;SDS011;10137;49.406;19.484;2022-08-19T05:44:35;19.73;;;13.73;;
19951;SDS011;10137;49.406;19.484;2022-08-19T05:47:12;20.58;;;13.13;;
19951;SDS011;10137;49.406;19.484;2022-08-19T05:49:40;16.75;;;13.60;;
19951;SDS011;10137;49.406;19.484;2022-08-19T05:52:12;25.13;;;13.35;;
19951;SDS011;10137;49.406;19.484;2022-08-19T05:54:42;39.17;;;15.57;;
19951;SDS011;10137;49.406;19.484;2022-08-19T05:57:13;23.23;;;13.20;;
19951;SDS011;10137;49.406;19.484;2022-08-19T05:59:41;24.27;;;14.75;;
19951;SDS011;10137;49.406;19.484;2022-08-19T06:02:11;21.48;;;13.05;;
19951;SDS011;10137;49.406;19.484;2022-08-19T06:04:38;23.02;;;13.20;;
19951;SDS011;10137;49.406;19.484;2022-08-19T06:07:07;22.13;;;13.80;;
19951;SDS011;10137;49.406;19.484;2022-08-19T06:09:36;18.23;;;12.80;;
19951;SDS011;10137;49.406;19.484;2022-08-19T06:12:03;19.20;;;14.15;;
19951;SDS011;10137;49.406;19.484;2022-08-19T06:14:31;19.77;;;13.15;;
19951;SDS011;10137;49.406;19.484;2022-08-19T06:17:02;19.95;;;13.38;;
19951;SDS011;10137;49.406;19.484;2022-08-19T06:19:29;20.70;;;14.07;;
19951;SDS011;10137;49.406;19.484;2022-08-19T06:21:57;16.48;;;13.55;;
19951;SDS011;10137;49.406;19.484;2022-08-19T06:24:27;20.10;;;13.45;;
19951;SDS011;10137;49.406;19.484;2022-08-19T06:26:56;21.17;;;14.23;;
19951;SDS011;10137;49.406;19.484;2022-08-19T06:29:27;19.88;;;13.75;;
19951;SDS011;10137;49.406;19.484;2022-08-19T06:31:56;16.67;;;13.90;;
19951;SDS011;10137;49.406;19.484;2022-08-19T06:34:28;18.73;;;13.52;;
19951;SDS011;10137;49.406;19.484;2022-08-19T06:36:57;20.02;;;13.10;;
19951;SDS011;10137;49.406;19.484;2022-08-19T06:39:28;16.13;;;12.77;;
19951;SDS011;10137;49.406;19.484;2022-08-19T06:41:58;20.02;;;13.60;;
19951;SDS011;10137;49.406;19.484;2022-08-19T06:44:28;16.02;;;13.15;;
19951;SDS011;10137;49.406;19.484;2022-08-19T06:46:56;17.73;;;12.45;;
19951;SDS011;10137;49.406;19.484;2022-08-19T06:49:24;15.68;;;12.73;;
19951;SDS011;10137;49.406;19.484;2022-08-19T06:51:56;20.17;;;14.27;;
19951;SDS011;10137;49.406;19.484;2022-08-19T06:54:24;17.17;;;12.95;;
19951;SDS011;10137;49.406;19.484;2022-08-19T06:56:53;20.60;;;14.07;;
19951;SDS011;10137;49.406;19.484;2022-08-19T06:59:21;19.83;;;13.52;;
19951;SDS011;10137;49.406;19.484;2022-08-19T07:01:52;18.90;;;13.70;;
19951;SDS011;10137;49.406;19.484;2022-08-19T07:04:21;17.00;;;13.35;;
19951;SDS011;10137;49.406;19.484;2022-08-19T07:06:56;20.33;;;13.80;;
19951;SDS011;10137;49.406;19.484;2022-08-19T07:09:28;19.73;;;13.05;;
19951;SDS011;10137;49.406;19.484;2022-08-19T07:11:59;18.90;;;13.90;;
19951;SDS011;10137;49.406;19.484;2022-08-19T07:14:28;19.50;;;13.13;;
19951;SDS011;10137;49.406;19.484;2022-08-19T07:16:56;25.30;;;13.70;;
19951;SDS011;10137;49.406;19.484;2022-08-19T07:19:25;23.63;;;13.63;;
19951;SDS011;10137;49.406;19.484;2022-08-19T07:21:54;17.75;;;13.48;;
19951;SDS011;10137;49.406;19.484;2022-08-19T07:24:24;21.65;;;14.52;;
19951;SDS011;10137;49.406;19.484;2022-08-19T07:26:54;19.10;;;13.88;;
19951;SDS011;10137;49.406;19.484;2022-08-19T07:29:31;25.42;;;13.55;;
19951;SDS011;10137;49.406;19.484;2022-08-19T07:32:01;18.13;;;14.07;;
19951;SDS011;10137;49.406;19.484;2022-08-19T07:34:30;20.73;;;14.02;;
19951;SDS011;10137;49.406;19.484;2022-08-19T07:37:00;16.90;;;13.32;;
19951;SDS011;10137;49.406;19.484;2022-08-19T07:39:30;20.80;;;14.07;;
19951;SDS011;10137;49.406;19.484;2022-08-19T07:42:02;24.10;;;14.32;;
19951;SDS011;10137;49.406;19.484;2022-08-19T07:44:34;18.40;;;12.77;;
19951;SDS011;10137;49.406;19.484;2022-08-19T07:47:03;19.50;;;13.88;;
19951;SDS011;10137;49.406;19.484;2022-08-19T07:49:33;16.95;;;13.60;;
19951;SDS011;10137;49.406;19.484;2022-08-19T07:52:02;17.73;;;12.57;;
19951;SDS011;10137;49.406;19.484;2022-08-19T07:54:35;19.55;;;13.20;;
19951;SDS011;10137;49.406;19.484;2022-08-19T07:57:05;15.45;;;12.57;;
19951;SDS011;10137;49.406;19.484;2022-08-19T07:59:34;19.45;;;12.07;;
19951;SDS011;10137;49.406;19.484;2022-08-19T08:02:02;18.98;;;11.82;;
19951;SDS011;10137;49.406;19.484;2022-08-19T08:04:35;18.67;;;13.20;;
19951;SDS011;10137;49.406;19.484;2022-08-19T08:07:20;18.80;;;12.45;;
19951;SDS011;10137;49.406;19.484;2022-08-19T08:10:07;20.33;;;12.20;;
19951;SDS011;10137;49.406;19.484;2022-08-19T08:12:35;16.20;;;11.57;;
19951;SDS011;10137;49.406;19.484;2022-08-19T08:15:10;24.55;;;11.98;;
19951;SDS011;10137;49.406;19.484;2022-08-19T08:17:45;15.68;;;11.48;;
19951;SDS011;10137;49.406;19.484;2022-08-19T08:20:14;17.92;;;12.75;;
19951;SDS011;10137;49.406;19.484;2022-08-19T08:22:45;16.40;;;12.40;;
19951;SDS011;10137;49.406;19.484;2022-08-19T08:25:31;13.93;;;12.10;;
19951;SDS011;10137;49.406;19.484;2022-08-19T08:28:02;18.98;;;12.68;;
19951;SDS011;10137;49.406;19.484;2022-08-19T08:30:32;17.08;;;12.48;;
19951;SDS011;10137;49.406;19.484;2022-08-19T08:33:02;18.10;;;12.38;;
19951;SDS011;10137;49.406;19.484;2022-08-19T08:35:31;14.93;;;12.10;;
19951;SDS011;10137;49.406;19.484;2022-08-19T08:38:02;14.70;;;11.43;;
19951;SDS011;10137;49.406;19.484;2022-08-19T08:40:33;18.10;;;11.55;;
19951;SDS011;10137;49.406;19.484;2022-08-19T08:43:11;14.05;;;11.38;;
19951;SDS011;10137;49.406;19.484;2022-08-19T08:45:51;11.98;;;10.63;;
19951;SDS011;10137;49.406;19.484;2022-08-19T08:48:24;17.15;;;11.70;;
19951;SDS011;10137;49.406;19.484;2022-08-19T08:51:07;16.30;;;11.63;;
19951;SDS011;10137;49.406;19.484;2022-08-19T08:53:38;19.52;;;12.32;;
19951;SDS011;10137;49.406;19.484;2022-08-19T08:56:09;16.05;;;11.98;;
19951;SDS011;10137;49.406;19.484;2022-08-19T08:58:45;17.42;;;12.43;;
19951;SDS011;10137;49.406;19.484;2022-08-19T09:01:18;21.13;;;12.05;;
19951;SDS011;10137;49.406;19.484;2022-08-19T09:03:47;13.82;;;11.98;;
19951;SDS011;10137;49.406;19.484;2022-08-19T09:06:18;19.02;;;11.90;;
19951;SDS011;10137;49.406;19.484;2022-08-19T09:08:54;22.17;;;11.55;;
19951;SDS011;10137;49.406;19.484;2022-08-19T09:11:39;14.23;;;11.73;;
19951;SDS011;10137;49.406;19.484;2022-08-19T09:14:16;18.15;;;11.93;;
19951;SDS011;10137;49.406;19.484;2022-08-19T09:16:54;16.33;;;11.98;;
19951;SDS011;10137;49.406;19.484;2022-08-19T09:19:23;15.48;;;11.40;;
19951;SDS011;10137;49.406;19.484;2022-08-19T09:21:50;15.05;;;11.52;;
19951;SDS011;10137;49.406;19.484;2022-08-19T09:24:18;18.48;;;11.63;;
19951;SDS011;10137;49.406;19.484;2022-08-19T09:26:45;16.95;;;11.73;;
19951;SDS011;10137;49.406;19.484;2022-08-19T09:29:12;14.77;;;10.85;;
19951;SDS011;10137;49.406;19.484;2022-08-19T09:31:39;14.30;;;11.00;;
19951;SDS011;10137;49.406;19.484;2022-08-19T09:34:07;15.32;;;9.73;;
19951;SDS011;10137;49.406;19.484;2022-08-19T09:36:34;12.73;;;10.57;;
19951;SDS011;10137;49.406;19.484;2022-08-19T09:39:07;12.23;;;9.50;;
19951;SDS011;10137;49.406;19.484;2022-08-19T09:41:34;17.38;;;10.63;;
19951;SDS011;10137;49.406;19.484;2022-08-19T09:44:01;14.00;;;10.25;;
19951;SDS011;10137;49.406;19.484;2022-08-19T09:46:29;14.40;;;10.55;;
19951;SDS011;10137;49.406;19.484;2022-08-19T09:48:58;14.63;;;10.43;;
19951;SDS011;10137;49.406;19.484;2022-08-19T09:51:29;11.40;;;9.38;;
19951;SDS011;10137;49.406;19.484;2022-08-19T09:53:59;15.27;;;10.50;;
19951;SDS011;10137;49.406;19.484;2022-08-19T09:56:27;14.13;;;9.70;;
19951;SDS011;10137;49.406;19.484;2022-08-19T09:58:57;13.32;;;9.70;;
19951;SDS011;10137;49.406;19.484;2022-08-19T10:01:25;13.65;;;9.70;;
19951;SDS011;10137;49.406;19.484;2022-08-19T10:03:54;16.42;;;9.80;;
19951;SDS011;10137;49.406;19.484;2022-08-19T10:06:24;18.17;;;9.48;;
19951;SDS011;10137;49.406;19.484;2022-08-19T10:08:57;12.88;;;9.30;;
19951;SDS011;10137;49.406;19.484;2022-08-19T10:11:29;20.92;;;9.50;;
19951;SDS011;10137;49.406;19.484;2022-08-19T10:13:56;12.85;;;9.82;;
19951;SDS011;10137;49.406;19.484;2022-08-19T10:16:25;15.27;;;9.60;;
19951;SDS011;10137;49.406;19.484;2022-08-19T10:18:52;18.25;;;9.95;;
19951;SDS011;10137;49.406;19.484;2022-08-19T10:21:20;15.82;;;8.80;;
19951;SDS011;10137;49.406;19.484;2022-08-19T10:23:49;13.20;;;9.25;;
19951;SDS011;10137;49.406;19.484;2022-08-19T10:26:19;12.57;;;8.75;;
19951;SDS011;10137;49.406;19.484;2022-08-19T10:28:48;14.90;;;9.48;;
19951;SDS011;10137;49.406;19.484;2022-08-19T10:31:16;11.30;;;8.80;;
19951;SDS011;10137;49.406;19.484;2022-08-19T10:33:45;11.52;;;8.95;;
19951;SDS011;10137;49.406;19.484;2022-08-19T10:36:15;13.15;;;9.05;;
19951;SDS011;10137;49.406;19.484;2022-08-19T10:38:44;9.77;;;8.35;;
19951;SDS011;10137;49.406;19.484;2022-08-19T10:41:13;14.30;;;8.45;;
19951;SDS011;10137;49.406;19.484;2022-08-19T10:43:44;20.75;;;9.07;;
19951;SDS011;10137;49.406;19.484;2022-08-19T10:46:13;13.32;;;8.23;;
19951;SDS011;10137;49.406;19.484;2022-08-19T10:48:42;15.82;;;9.30;;
19951;SDS011;10137;49.406;19.484;2022-08-19T10:51:09;12.80;;;8.68;;
19951;SDS011;10137;49.406;19.484;2022-08-19T10:53:55;12.15;;;8.40;;
19951;SDS011;10137;49.406;19.484;2022-08-19T10:56:23;12.30;;;8.57;;
19951;SDS011;10137;49.406;19.484;2022-08-19T10:59:10;12.15;;;8.57;;
19951;SDS011;10137;49.406;19.484;2022-08-19T11:01:39;10.10;;;8.27;;
19951;SDS011;10137;49.406;19.484;2022-08-19T11:04:08;12.10;;;8.40;;
19951;SDS011;10137;49.406;19.484;2022-08-19T11:06:38;14.05;;;8.38;;
19951;SDS011;10137;49.406;19.484;2022-08-19T11:09:08;13.05;;;8.65;;
19951;SDS011;10137;49.406;19.484;2022-08-19T11:11:38;11.43;;;8.90;;
19951;SDS011;10137;49.406;19.484;2022-08-19T11:14:06;15.13;;;9.57;;
19951;SDS011;10137;49.406;19.484;2022-08-19T11:16:34;14.70;;;8.40;;
19951;SDS011;10137;49.406;19.484;2022-08-19T11:19:03;11.10;;;8.50;;
19951;SDS011;10137;49.406;19.484;2022-08-19T11:21:33;9.95;;;7.38;;
19951;SDS011;10137;49.406;19.484;2022-08-19T11:24:05;14.90;;;7.45;;
19951;SDS011;10137;49.406;19.484;2022-08-19T11:26:38;12.05;;;7.18;;
19951;SDS011;10137;49.406;19.484;2022-08-19T11:29:12;11.23;;;7.05;;
19951;SDS011;10137;49.406;19.484;2022-08-19T11:31:43;12.07;;;6.70;;
19951;SDS011;10137;49.406;19.484;2022-08-19T11:34:14;12.18;;;6.70;;
19951;SDS011;10137;49.406;19.484;2022-08-19T11:36:46;12.20;;;7.32;;
19951;SDS011;10137;49.406;19.484;2022-08-19T11:39:16;9.35;;;5.88;;
19951;SDS011;10137;49.406;19.484;2022-08-19T11:41:45;13.38;;;5.50;;
19951;SDS011;10137;49.406;19.484;2022-08-19T11:44:12;10.70;;;5.72;;
19951;SDS011;10137;49.406;19.484;2022-08-19T11:46:40;12.50;;;5.75;;
19951;SDS011;10137;49.406;19.484;2022-08-19T11:49:12;10.45;;;5.35;;
19951;SDS011;10137;49.406;19.484;2022-08-19T11:51:40;9.05;;;6.20;;
19951;SDS011;10137;49.406;19.484;2022-08-19T11:54:08;10.80;;;5.80;;
19951;SDS011;10137;49.406;19.484;2022-08-19T11:56:37;8.35;;;5.30;;
19951;SDS011;10137;49.406;19.484;2022-08-19T11:59:04;9.85;;;5.68;;
19951;SDS011;10137;49.406;19.484;2022-08-19T12:01:34;15.05;;;6.13;;
19951;SDS011;10137;49.406;19.484;2022-08-19T12:04:02;9.55;;;5.53;;
19951;SDS011;10137;49.406;19.484;2022-08-19T12:06:33;9.20;;;5.53;;
19951;SDS011;10137;49.406;19.484;2022-08-19T12:09:05;10.27;;;5.53;;
19951;SDS011;10137;49.406;19.484;2022-08-19T12:11:36;14.02;;;6.47;;
19951;SDS011;10137;49.406;19.484;2022-08-19T12:14:03;9.00;;;5.82;;
19951;SDS011;10137;49.406;19.484;2022-08-19T12:16:32;12.00;;;6.43;;
19951;SDS011;10137;49.406;19.484;2022-08-19T12:19:00;10.52;;;5.53;;
19951;SDS011;10137;49.406;19.484;2022-08-19T12:21:32;9.88;;;5.68;;
19951;SDS011;10137;49.406;19.484;2022-08-19T12:24:03;17.17;;;7.68;;
19951;SDS011;10137;49.406;19.484;2022-08-19T12:26:32;10.25;;;5.72;;
19951;SDS011;10137;49.406;19.484;2022-08-19T12:29:01;8.18;;;5.93;;
19951;SDS011;10137;49.406;19.484;2022-08-19T12:31:28;9.05;;;6.10;;
19951;SDS011;10137;49.406;19.484;2022-08-19T12:33:57;10.95;;;6.00;;
19951;SDS011;10137;49.406;19.484;2022-08-19T12:36:28;11.65;;;5.72;;
19951;SDS011;10137;49.406;19.484;2022-08-19T12:38:58;8.77;;;5.70;;
19951;SDS011;10137;49.406;19.484;2022-08-19T12:41:26;10.90;;;6.18;;
19951;SDS011;10137;49.406;19.484;2022-08-19T12:43:53;11.02;;;6.43;;
19951;SDS011;10137;49.406;19.484;2022-08-19T12:46:20;9.05;;;5.97;;
19951;SDS011;10137;49.406;19.484;2022-08-19T12:48:47;11.60;;;5.85;;
19951;SDS011;10137;49.406;19.484;2022-08-19T12:51:15;10.93;;;6.00;;
19951;SDS011;10137;49.406;19.484;2022-08-19T12:53:44;10.68;;;6.13;;
19951;SDS011;10137;49.406;19.484;2022-08-19T12:56:13;11.20;;;6.18;;
19951;SDS011;10137;49.406;19.484;2022-08-19T12:58:41;12.60;;;6.30;;
19951;SDS011;10137;49.406;19.484;2022-08-19T13:01:09;12.77;;;6.82;;
19951;SDS011;10137;49.406;19.484;2022-08-19T13:03:38;15.50;;;6.18;;
19951;SDS011;10137;49.406;19.484;2022-08-19T13:06:05;11.60;;;6.35;;
19951;SDS011;10137;49.406;19.484;2022-08-19T13:08:33;14.55;;;6.35;;
19951;SDS011;10137;49.406;19.484;2022-08-19T13:11:06;14.65;;;5.75;;
19951;SDS011;10137;49.406;19.484;2022-08-19T13:13:37;9.02;;;6.10;;
19951;SDS011;10137;49.406;19.484;2022-08-19T13:16:06;10.48;;;5.82;;
19951;SDS011;10137;49.406;19.484;2022-08-19T13:18:34;13.98;;;6.68;;
19951;SDS011;10137;49.406;19.484;2022-08-19T13:21:03;9.70;;;6.25;;
19951;SDS011;10137;49.406;19.484;2022-08-19T13:23:30;9.13;;;5.80;;
19951;SDS011;10137;49.406;19.484;2022-08-19T13:25:58;11.18;;;6.05;;
19951;SDS011;10137;49.406;19.484;2022-08-19T13:28:27;8.30;;;5.95;;
19951;SDS011;10137;49.406;19.484;2022-08-19T13:31:17;9.95;;;5.75;;
19951;SDS011;10137;49.406;19.484;2022-08-19T13:34:03;14.60;;;6.28;;
19951;SDS011;10137;49.406;19.484;2022-08-19T13:36:30;9.18;;;5.47;;
19951;SDS011;10137;49.406;19.484;2022-08-19T13:38:58;7.72;;;4.80;;
19951;SDS011;10137;49.406;19.484;2022-08-19T13:41:25;12.57;;;5.72;;
19951;SDS011;10137;49.406;19.484;2022-08-19T13:43:52;8.60;;;4.85;;
19951;SDS011;10137;49.406;19.484;2022-08-19T13:46:21;11.70;;;4.85;;
19951;SDS011;10137;49.406;19.484;2022-08-19T13:48:48;12.63;;;5.13;;
19951;SDS011;10137;49.406;19.484;2022-08-19T13:51:15;9.63;;;5.30;;
19951;SDS011;10137;49.406;19.484;2022-08-19T13:53:44;8.80;;;5.28;;
19951;SDS011;10137;49.406;19.484;2022-08-19T13:56:15;11.57;;;5.30;;
19951;SDS011;10137;49.406;19.484;2022-08-19T13:58:44;11.27;;;4.75;;
19951;SDS011;10137;49.406;19.484;2022-08-19T14:01:12;8.45;;;4.78;;
19951;SDS011;10137;49.406;19.484;2022-08-19T14:03:46;10.32;;;5.65;;
19951;SDS011;10137;49.406;19.484;2022-08-19T14:06:13;10.85;;;4.90;;
19951;SDS011;10137;49.406;19.484;2022-08-19T14:08:41;10.60;;;5.30;;
19951;SDS011;10137;49.406;19.484;2022-08-19T14:11:08;18.73;;;5.65;;
19951;SDS011;10137;49.406;19.484;2022-08-19T14:13:36;13.52;;;5.22;;
19951;SDS011;10137;49.406;19.484;2022-08-19T14:16:06;11.25;;;5.30;;
19951;SDS011;10137;49.406;19.484;2022-08-19T14:18:34;7.47;;;4.63;;
19951;SDS011;10137;49.406;19.484;2022-08-19T14:21:04;12.73;;;5.20;;
19951;SDS011;10137;49.406;19.484;2022-08-19T14:23:32;14.32;;;5.43;;
19951;SDS011;10137;49.406;19.484;2022-08-19T14:26:04;10.35;;;5.20;;
19951;SDS011;10137;49.406;19.484;2022-08-19T14:28:33;10.30;;;5.07;;
19951;SDS011;10137;49.406;19.484;2022-08-19T14:31:00;9.38;;;5.22;;